Time;durP1;ratioP1;P1;durP2;ratioP2;P2;SDS_P1;SDS_P2;PMS_P1;PMS_P2;Temp;Humidity;BMP_temperature;BMP_pressure;BME280_temperature;BME280_humidity;BME280_pressure;Samples;Min_cycle;Max_cycle;Signal;HPM_P1;HPM_P2
2024/03/17 00:00:40;;;;;;;;;;;;;;;;;;4858097;29;20092;-57
2024/03/17 00:03:08;;;;;;;;;;;;;;;;;;4857349;29;19963;-53
2024/03/17 00:05:34;;;;;;;;;;;;;;;;;;4858241;29;19912;-55
2024/03/17 00:08:00;;;;;;;;;;;;;;;;;;4857581;29;19952;-53
2024/03/17 00:10:26;;;;;;;;;;;;;;;;;;4857802;29;19951;-54
2024/03/17 00:12:52;;;;;;;;;;;;;;;;;;4858176;29;19975;-53
2024/03/17 00:15:18;;;;;;;;;;;;;;;;;;4855545;29;19907;-53
2024/03/17 00:17:44;;;;;;;;;;;;;;;;;;4858345;29;20627;-54
2024/03/17 00:20:18;;;;;;;;;;;;;;;;;;4858463;29;20388;-53
2024/03/17 00:22:44;;;;;;;;;;;;;;;;;;4857535;29;20378;-54
2024/03/17 00:25:10;;;;;;;;;;;;;;;;;;4858657;29;19947;-53
2024/03/17 00:27:39;;;;;;;;;;;;;;;;;;4858410;29;19955;-53
2024/03/17 00:30:10;;;;;;;;;;;;;;;;;;4856549;29;19926;-56
2024/03/17 00:32:36;;;;;;;;;;;;;;;;;;4857813;29;19920;-54
2024/03/17 00:35:01;;;;;;;;;;;;;;;;;;4864866;29;20400;-55
2024/03/17 00:37:28;;;;;;;;;;;;;;;;;;4864177;29;20328;-53
2024/03/17 00:39:54;;;;;;;;;;;;;;;;;;4864831;29;20016;-54
2024/03/17 00:42:20;;;;;;;;;;;;;;;;;;4857949;29;19947;-53
2024/03/17 00:44:46;;;;;;;;;;;;;;;;;;4862071;29;20680;-53
2024/03/17 00:47:12;;;;;;;;;;;;;;;;;;4863841;29;20323;-55
2024/03/17 00:49:38;;;;;;;;;;;;;;;;;;4861020;29;19959;-53
2024/03/17 00:52:04;;;;;;;;;;;;;;;;;;4858577;29;20351;-54
2024/03/17 00:54:30;;;;;;;;;;;;;;;;;;4855791;29;19912;-53
2024/03/17 00:56:56;;;;;;;;;;;;;;;;;;4860898;29;20027;-54
2024/03/17 00:59:22;;;;;;;;;;;;;;;;;;4858910;29;20014;-54
2024/03/17 01:01:48;;;;;;;;;;;;;;;;;;4857389;29;19951;-53
2024/03/17 01:04:14;;;;;;;;;;;;;;;;;;4860492;29;19958;-54
2024/03/17 01:06:40;;;;;;;;;;;;;;;;;;4856776;29;19956;-55
2024/03/17 01:09:06;;;;;;;;;;;;;;;;;;4861396;29;19920;-54
2024/03/17 01:11:32;;;;;;;;;;;;;;;;;;4857663;29;21727;-54
2024/03/17 01:13:58;;;;;;;;;;;;;;;;;;4863599;29;20431;-53
2024/03/17 01:16:24;;;;;;;;;;;;;;;;;;4857546;29;20464;-52
2024/03/17 01:18:50;;;;;;;;;;;;;;;;;;4857479;29;19974;-53
2024/03/17 01:21:16;;;;;;;;;;;;;;;;;;4860245;29;20231;-53
2024/03/17 01:23:42;;;;;;;;;;;;;;;;;;4856474;29;20403;-54
2024/03/17 01:26:08;;;;;;;;;;;;;;;;;;4857220;29;20305;-53
2024/03/17 01:28:34;;;;;;;;;;;;;;;;;;4880617;29;19955;-54
2024/03/17 01:31:00;;;;;;;;;;;;;;;;;;4878842;29;20027;-55
2024/03/17 01:33:25;;;;;;;;;;;;;;;;;;4877503;29;20031;-53
2024/03/17 01:35:51;;;;;;;;;;;;;;;;;;4878235;29;20479;-52
2024/03/17 01:38:17;;;;;;;;;;;;;;;;;;4879316;29;20435;-53
2024/03/17 01:40:43;;;;;;;;;;;;;;;;;;4877292;29;19955;-54
2024/03/17 01:43:09;;;;;;;;;;;;;;;;;;4879545;29;20304;-53
2024/03/17 01:45:35;;;;;;;;;;;;;;;;;;4883152;29;19915;-51
2024/03/17 01:48:01;;;;;;;;;;;;;;;;;;4882863;29;19959;-56
2024/03/17 01:50:28;;;;;;;;;;;;;;;;;;4887429;29;19958;-53
2024/03/17 01:52:54;;;;;;;;;;;;;;;;;;4884292;29;20380;-53
2024/03/17 01:55:20;;;;;;;;;;;;;;;;;;4887354;29;19946;-54
2024/03/17 01:57:46;;;;;;;;;;;;;;;;;;4883513;29;20423;-54
2024/03/17 02:00:12;;;;;;;;;;;;;;;;;;4883383;29;20455;-55
2024/03/17 02:02:38;;;;;;;;;;;;;;;;;;4886712;29;19942;-53
2024/03/17 02:05:04;;;;;;;;;;;;;;;;;;4881495;29;20400;-54
2024/03/17 02:07:30;;;;;;;;;;;;;;;;;;4881699;29;19994;-53
2024/03/17 02:09:55;;;;;;;;;;;;;;;;;;4880832;29;19963;-53
2024/03/17 02:12:21;;;;;;;;;;;;;;;;;;4881485;29;20017;-53
2024/03/17 02:14:47;;;;;;;;;;;;;;;;;;4879705;29;19959;-53
2024/03/17 02:17:13;;;;;;;;;;;;;;;;;;4879910;29;19967;-54
2024/03/17 02:19:39;;;;;;;;;;;;;;;;;;4882696;29;19963;-54
2024/03/17 02:22:05;;;;;;;;;;;;;;;;;;4880536;29;19966;-54
2024/03/17 02:24:31;;;;;;;;;;;;;;;;;;4877946;29;19962;-52
2024/03/17 02:26:57;;;;;;;;;;;;;;;;;;4881864;29;19971;-52
2024/03/17 02:29:23;;;;;;;;;;;;;;;;;;4878880;29;20011;-54
2024/03/17 02:31:49;;;;;;;;;;;;;;;;;;4881883;29;19916;-53
2024/03/17 02:34:15;;;;;;;;;;;;;;;;;;4880480;29;19959;-54
2024/03/17 02:36:41;;;;;;;;;;;;;;;;;;4883832;29;19954;-54
2024/03/17 02:41:52;;;;;;;;;;;;;;;;;;4882946;29;19922;-52
2024/03/17 02:44:18;;;;;;;;;;;;;;;;;;4881001;29;20356;-54
2024/03/17 02:46:44;;;;;;;;;;;;;;;;;;4879068;29;20722;-53
2024/03/17 02:49:13;;;;;;;;;;;;;;;;;;4882129;29;20019;-52
2024/03/17 02:51:39;;;;;;;;;;;;;;;;;;4889069;29;19911;-53
2024/03/17 02:54:05;;;;;;;;;;;;;;;;;;4890870;29;19911;-60
2024/03/17 02:56:31;;;;;;;;;;;;;;;;;;4882184;29;20716;-59
2024/03/17 02:58:57;;;;;;;;;;;;;;;;;;4877045;29;20359;-58
2024/03/17 03:01:24;;;;;;;;;;;;;;;;;;4874909;29;19954;-58
2024/03/17 03:03:50;;;;;;;;;;;;;;;;;;4881361;29;20014;-59
2024/03/17 03:06:19;;;;;;;;;;;;;;;;;;4877833;29;20010;-60
2024/03/17 03:08:48;;;;;;;;;;;;;;;;;;4877487;29;20256;-58
2024/03/17 03:11:14;;;;;;;;;;;;;;;;;;4882706;29;20287;-60
2024/03/17 03:13:40;;;;;;;;;;;;;;;;;;4877311;29;19912;-58
2024/03/17 03:16:06;;;;;;;;;;;;;;;;;;4880160;29;20002;-59
2024/03/17 03:18:31;;;;;;;;;;;;;;;;;;4882183;29;19922;-59
2024/03/17 03:20:57;;;;;;;;;;;;;;;;;;4880140;29;20002;-60
2024/03/17 03:23:23;;;;;;;;;;;;;;;;;;4879477;29;20000;-58
2024/03/17 03:25:50;;;;;;;;;;;;;;;;;;4882195;29;19994;-58
2024/03/17 03:28:16;;;;;;;;;;;;;;;;;;4862718;29;19973;-57
2024/03/17 03:30:42;;;;;;;;;;;;;;;;;;4856164;29;19961;-60
2024/03/17 03:33:09;;;;;;;;;;;;;;;;;;4862320;29;19982;-59
2024/03/17 03:35:35;;;;;;;;;;;;;;;;;;4858601;29;19924;-57
2024/03/17 03:38:02;;;;;;;;;;;;;;;;;;4857000;29;20028;-59
2024/03/17 03:40:28;;;;;;;;;;;;;;;;;;4857074;29;20027;-59
2024/03/17 03:42:54;;;;;;;;;;;;;;;;;;4857496;29;20046;-58
2024/03/17 03:45:20;;;;;;;;;;;;;;;;;;4856235;29;19919;-59
2024/03/17 03:47:47;;;;;;;;;;;;;;;;;;4856074;29;19951;-59
2024/03/17 03:50:13;;;;;;;;;;;;;;;;;;4868622;29;19919;-59
2024/03/17 03:52:42;;;;;;;;;;;;;;;;;;4870985;29;19919;-59
2024/03/17 03:55:10;;;;;;;;;;;;;;;;;;4865246;29;19943;-53
2024/03/17 03:57:36;;;;;;;;;;;;;;;;;;4865202;29;19916;-53
2024/03/17 04:00:05;;;;;;;;;;;;;;;;;;4861321;29;20391;-56
2024/03/17 04:02:33;;;;;;;;;;;;;;;;;;4863865;29;20475;-58
2024/03/17 04:04:59;;;;;;;;;;;;;;;;;;4859072;29;19938;-54
2024/03/17 04:07:25;;;;;;;;;;;;;;;;;;4858788;29;19916;-56
2024/03/17 04:09:54;;;;;;;;;;;;;;;;;;4860936;29;19980;-53
2024/03/17 04:12:20;;;;;;;;;;;;;;;;;;4858725;29;19923;-54
2024/03/17 04:14:46;;;;;;;;;;;;;;;;;;4856668;29;19943;-54
2024/03/17 04:17:12;;;;;;;;;;;;;;;;;;4855987;29;19918;-57
2024/03/17 04:19:38;;;;;;;;;;;;;;;;;;4857604;29;19915;-52
2024/03/17 04:22:04;;;;;;;;;;;;;;;;;;4855798;29;20612;-53
2024/03/17 04:24:30;;;;;;;;;;;;;;;;;;4859558;29;20405;-54
2024/03/17 04:26:56;;;;;;;;;;;;;;;;;;4864219;29;19988;-53
2024/03/17 04:29:22;;;;;;;;;;;;;;;;;;4878954;29;19976;-54
2024/03/17 04:31:48;;;;;;;;;;;;;;;;;;4876516;29;19942;-53
2024/03/17 04:34:14;;;;;;;;;;;;;;;;;;4876462;29;20050;-55
2024/03/17 04:36:40;;;;;;;;;;;;;;;;;;4876284;29;20529;-53
2024/03/17 04:39:08;;;;;;;;;;;;;;;;;;4881460;29;20014;-54
2024/03/17 04:41:34;;;;;;;;;;;;;;;;;;4873438;29;19919;-54
2024/03/17 04:44:00;;;;;;;;;;;;;;;;;;4874127;29;19943;-53
2024/03/17 04:46:26;;;;;;;;;;;;;;;;;;4876801;29;20307;-54
2024/03/17 04:48:52;;;;;;;;;;;;;;;;;;4877671;29;20399;-53
2024/03/17 04:51:18;;;;;;;;;;;;;;;;;;4875163;29;19998;-53
2024/03/17 04:53:43;;;;;;;;;;;;;;;;;;4875005;29;20429;-54
2024/03/17 04:56:09;;;;;;;;;;;;;;;;;;4875948;29;20231;-53
2024/03/17 04:58:35;;;;;;;;;;;;;;;;;;4878384;29;19959;-54
2024/03/17 05:01:01;;;;;;;;;;;;;;;;;;4875881;29;20376;-54
2024/03/17 05:03:27;;;;;;;;;;;;;;;;;;4876760;29;19972;-53
2024/03/17 05:05:53;;;;;;;;;;;;;;;;;;4875706;29;19965;-53
2024/03/17 05:08:19;;;;;;;;;;;;;;;;;;4876479;29;19955;-53
2024/03/17 05:10:45;;;;;;;;;;;;;;;;;;4875431;29;19955;-54
2024/03/17 05:13:11;;;;;;;;;;;;;;;;;;4873221;29;19947;-54
2024/03/17 05:15:37;;;;;;;;;;;;;;;;;;4875198;29;19955;-52
2024/03/17 05:18:03;;;;;;;;;;;;;;;;;;4875244;29;19920;-52
2024/03/17 05:20:29;;;;;;;;;;;;;;;;;;4874675;29;19950;-52
2024/03/17 05:22:55;;;;;;;;;;;;;;;;;;4875514;29;19947;-53
2024/03/17 05:25:21;;;;;;;;;;;;;;;;;;4874904;29;19959;-54
2024/03/17 05:27:47;;;;;;;;;;;;;;;;;;4861946;29;20022;-51
2024/03/17 05:30:13;;;;;;;;;;;;;;;;;;4857185;29;20563;-54
2024/03/17 05:32:39;;;;;;;;;;;;;;;;;;4856620;29;19997;-52
2024/03/17 05:35:05;;;;;;;;;;;;;;;;;;4856453;29;19956;-52
2024/03/17 05:37:31;;;;;;;;;;;;;;;;;;4856053;29;19916;-53
2024/03/17 05:39:57;;;;;;;;;;;;;;;;;;4856466;29;19916;-54
2024/03/17 05:42:23;;;;;;;;;;;;;;;;;;4856162;29;19954;-54
2024/03/17 05:44:49;;;;;;;;;;;;;;;;;;4860725;29;19969;-54
2024/03/17 05:47:15;;;;;;;;;;;;;;;;;;4858441;29;19939;-53
2024/03/17 05:49:42;;;;;;;;;;;;;;;;;;4860314;29;20431;-53
2024/03/17 05:52:08;;;;;;;;;;;;;;;;;;4862567;29;20438;-54
2024/03/17 05:54:34;;;;;;;;;;;;;;;;;;4861225;29;19964;-54
2024/03/17 05:57:01;;;;;;;;;;;;;;;;;;4857719;29;20314;-53
2024/03/17 05:59:27;;;;;;;;;;;;;;;;;;4856383;29;20050;-53
2024/03/17 06:01:53;;;;;;;;;;;;;;;;;;4855983;29;19951;-53
2024/03/17 06:04:19;;;;;;;;;;;;;;;;;;4856596;29;19943;-52
2024/03/17 06:06:45;;;;;;;;;;;;;;;;;;4860502;29;19985;-52
2024/03/17 06:09:11;;;;;;;;;;;;;;;;;;4859345;29;19947;-53
2024/03/17 06:11:37;;;;;;;;;;;;;;;;;;4859190;29;20406;-53
2024/03/17 06:14:06;;;;;;;;;;;;;;;;;;4861429;29;20325;-59
2024/03/17 06:16:32;;;;;;;;;;;;;;;;;;4858990;29;20351;-53
2024/03/17 06:18:58;;;;;;;;;;;;;;;;;;4859369;29;20002;-52
2024/03/17 06:21:24;;;;;;;;;;;;;;;;;;4855771;29;20008;-53
2024/03/17 06:23:49;;;;;;;;;;;;;;;;;;4857110;29;19950;-51
2024/03/17 06:26:15;;;;;;;;;;;;;;;;;;4861413;29;19943;-52
2024/03/17 06:28:42;;;;;;;;;;;;;;;;;;4861655;29;19959;-54
2024/03/17 06:31:10;;;;;;;;;;;;;;;;;;4867317;29;19916;-53
2024/03/17 06:33:35;;;;;;;;;;;;;;;;;;4863913;29;20377;-52
2024/03/17 06:36:04;;;;;;;;;;;;;;;;;;4864168;29;19973;-54
2024/03/17 06:38:30;;;;;;;;;;;;;;;;;;4863711;29;19927;-53
2024/03/17 06:40:56;;;;;;;;;;;;;;;;;;4863058;29;19943;-52
2024/03/17 06:43:22;;;;;;;;;;;;;;;;;;4868024;29;19952;-52
2024/03/17 06:45:48;;;;;;;;;;;;;;;;;;4861181;29;19939;-53
2024/03/17 06:48:13;;;;;;;;;;;;;;;;;;4868595;29;20000;-54
2024/03/17 06:50:40;;;;;;;;;;;;;;;;;;4867049;29;19951;-55
2024/03/17 06:53:06;;;;;;;;;;;;;;;;;;4860584;29;19924;-54
2024/03/17 06:55:32;;;;;;;;;;;;;;;;;;4860043;29;20014;-54
2024/03/17 06:57:59;;;;;;;;;;;;;;;;;;4860667;29;19957;-52
2024/03/17 07:00:25;;;;;;;;;;;;;;;;;;4864346;29;20375;-53
2024/03/17 07:02:51;;;;;;;;;;;;;;;;;;4860428;29;19947;-53
2024/03/17 07:05:17;;;;;;;;;;;;;;;;;;4857991;29;20042;-53
2024/03/17 07:07:43;;;;;;;;;;;;;;;;;;4862681;29;19920;-53
2024/03/17 07:10:11;;;;;;;;;;;;;;;;;;4861239;29;19959;-53
2024/03/17 07:12:36;;;;;;;;;;;;;;;;;;4859264;29;19916;-54
2024/03/17 07:15:02;;;;;;;;;;;;;;;;;;4860059;29;20321;-54
2024/03/17 07:17:28;;;;;;;;;;;;;;;;;;4858309;29;20394;-53
2024/03/17 07:19:54;;;;;;;;;;;;;;;;;;4863134;29;20320;-54
2024/03/17 07:22:22;;;;;;;;;;;;;;;;;;4859210;29;20420;-52
2024/03/17 07:24:50;;;;;;;;;;;;;;;;;;4861076;29;19923;-59
2024/03/17 07:27:16;;;;;;;;;;;;;;;;;;4872747;29;20329;-59
2024/03/17 07:29:41;;;;;;;;;;;;;;;;;;4877805;29;19951;-60
2024/03/17 07:32:07;;;;;;;;;;;;;;;;;;4877740;29;19954;-59
2024/03/17 07:34:35;;;;;;;;;;;;;;;;;;4877250;29;19955;-59
2024/03/17 07:37:02;;;;;;;;;;;;;;;;;;4876579;29;19998;-60
2024/03/17 07:39:32;;;;;;;;;;;;;;;;;;4874783;29;19978;-59
2024/03/17 07:41:58;;;;;;;;;;;;;;;;;;4881838;29;20424;-57
2024/03/17 07:44:24;;;;;;;;;;;;;;;;;;4876540;29;19920;-59
2024/03/17 07:46:50;;;;;;;;;;;;;;;;;;4881587;29;19962;-59
2024/03/17 07:49:16;;;;;;;;;;;;;;;;;;4879626;29;19959;-59
2024/03/17 07:51:43;;;;;;;;;;;;;;;;;;4883094;29;19919;-58
2024/03/17 07:54:09;;;;;;;;;;;;;;;;;;4876699;29;20269;-59
2024/03/17 07:56:35;;;;;;;;;;;;;;;;;;4876686;29;19951;-58
2024/03/17 07:59:01;;;;;;;;;;;;;;;;;;4881232;29;19922;-58
2024/03/17 08:01:27;;;;;;;;;;;;;;;;;;4880612;29;20008;-58
2024/03/17 08:03:56;;;;;;;;;;;;;;;;;;4881019;29;19922;-58
2024/03/17 08:06:22;;;;;;;;;;;;;;;;;;4875307;29;19916;-58
2024/03/17 08:08:48;;;;;;;;;;;;;;;;;;4883200;29;19916;-57
2024/03/17 08:11:14;;;;;;;;;;;;;;;;;;4876739;29;19954;-58
2024/03/17 08:13:40;;;;;;;;;;;;;;;;;;4876055;29;19954;-58
2024/03/17 08:16:06;;;;;;;;;;;;;;;;;;4878492;29;19947;-58
2024/03/17 08:18:32;;;;;;;;;;;;;;;;;;4874479;29;19955;-57
2024/03/17 08:20:58;;;;;;;;;;;;;;;;;;4874600;29;19955;-58
2024/03/17 08:23:24;;;;;;;;;;;;;;;;;;4873868;29;19954;-57
2024/03/17 08:25:50;;;;;;;;;;;;;;;;;;4876271;29;19908;-58
2024/03/17 08:28:16;;;;;;;;;;;;;;;;;;4863426;29;20433;-56
2024/03/17 08:30:42;;;;;;;;;;;;;;;;;;4862475;29;19943;-57
2024/03/17 08:33:09;;;;;;;;;;;;;;;;;;4862291;29;19923;-57
2024/03/17 08:35:37;;;;;;;;;;;;;;;;;;4863091;29;20051;-59
2024/03/17 08:38:03;;;;;;;;;;;;;;;;;;4857866;29;19918;-56
2024/03/17 08:40:29;;;;;;;;;;;;;;;;;;4868996;29;19915;-56
2024/03/17 08:42:54;;;;;;;;;;;;;;;;;;4861708;29;19912;-56
2024/03/17 08:45:20;;;;;;;;;;;;;;;;;;4871701;29;19951;-57
2024/03/17 08:47:46;;;;;;;;;;;;;;;;;;4864780;29;19947;-57
2024/03/17 08:50:12;;;;;;;;;;;;;;;;;;4871777;29;19972;-57
2024/03/17 08:52:39;;;;;;;;;;;;;;;;;;4865419;29;19966;-57
2024/03/17 08:55:09;;;;;;;;;;;;;;;;;;4870190;29;20018;-57
2024/03/17 08:57:35;;;;;;;;;;;;;;;;;;4857275;29;19919;-57
2024/03/17 09:00:01;;;;;;;;;;;;;;;;;;4872773;29;19951;-56
2024/03/17 09:02:28;;;;;;;;;;;;;;;;;;4859130;29;20361;-56
2024/03/17 09:04:54;;;;;;;;;;;;;;;;;;4868347;29;19916;-57
2024/03/17 09:07:19;;;;;;;;;;;;;;;;;;4867725;29;20265;-57
2024/03/17 09:09:45;;;;;;;;;;;;;;;;;;4856953;29;20340;-56
2024/03/17 09:12:11;;;;;;;;;;;;;;;;;;4858678;29;20392;-57
2024/03/17 09:14:37;;;;;;;;;;;;;;;;;;4869043;29;20356;-56
2024/03/17 09:17:03;;;;;;;;;;;;;;;;;;4875289;29;19975;-57
2024/03/17 09:19:29;;;;;;;;;;;;;;;;;;4865416;29;19984;-56
2024/03/17 09:21:55;;;;;;;;;;;;;;;;;;4866351;29;19990;-56
2024/03/17 09:24:21;;;;;;;;;;;;;;;;;;4866275;29;20324;-57
2024/03/17 09:26:48;;;;;;;;;;;;;;;;;;4864282;29;19979;-57
2024/03/17 09:29:17;;;;;;;;;;;;;;;;;;4874383;29;19919;-57
2024/03/17 09:31:43;;;;;;;;;;;;;;;;;;4873589;29;19912;-57
2024/03/17 09:34:09;;;;;;;;;;;;;;;;;;4877090;29;20355;-56
2024/03/17 09:36:35;;;;;;;;;;;;;;;;;;4876806;29;19920;-57
2024/03/17 09:39:03;;;;;;;;;;;;;;;;;;4877668;29;19915;-56
2024/03/17 09:41:30;;;;;;;;;;;;;;;;;;4873319;29;20309;-56
2024/03/17 09:43:56;;;;;;;;;;;;;;;;;;4856813;29;19912;-56
2024/03/17 09:46:22;;;;;;;;;;;;;;;;;;4863950;29;19927;-58
2024/03/17 09:48:48;;;;;;;;;;;;;;;;;;4868692;29;19939;-59
2024/03/17 09:51:14;;;;;;;;;;;;;;;;;;4869823;29;20752;-56
2024/03/17 09:53:40;;;;;;;;;;;;;;;;;;4866710;29;19923;-57
2024/03/17 09:56:06;;;;;;;;;;;;;;;;;;4865185;29;19958;-55
2024/03/17 09:58:32;;;;;;;;;;;;;;;;;;4871350;29;19970;-58
2024/03/17 10:00:58;;;;;;;;;;;;;;;;;;4871354;29;19958;-58
2024/03/17 10:03:23;;;;;;;;;;;;;;;;;;4869372;29;19978;-61
2024/03/17 10:05:49;;;;;;;;;;;;;;;;;;4871450;29;19930;-58
2024/03/17 10:08:15;;;;;;;;;;;;;;;;;;4870955;29;19947;-58
2024/03/17 10:10:41;;;;;;;;;;;;;;;;;;4867839;29;19951;-58
2024/03/17 10:13:07;;;;;;;;;;;;;;;;;;4869972;29;20007;-59
2024/03/17 10:15:35;;;;;;;;;;;;;;;;;;4875215;29;19968;-53
2024/03/17 10:18:01;;;;;;;;;;;;;;;;;;4873316;29;20380;-54
2024/03/17 10:20:28;;;;;;;;;;;;;;;;;;4868894;29;19955;-53
2024/03/17 10:22:54;;;;;;;;;;;;;;;;;;4868414;29;19919;-53
2024/03/17 10:25:20;;;;;;;;;;;;;;;;;;4870309;29;19963;-57
2024/03/17 10:27:47;;;;;;;;;;;;;;;;;;4863649;29;20552;-56
2024/03/17 10:30:13;;;;;;;;;;;;;;;;;;4860449;29;19955;-55
2024/03/17 10:32:39;;;;;;;;;;;;;;;;;;4866571;29;20371;-53
2024/03/17 10:35:05;;;;;;;;;;;;;;;;;;4863027;29;19951;-53
2024/03/17 10:37:31;;;;;;;;;;;;;;;;;;4859212;29;20292;-52
2024/03/17 10:39:59;;;;;;;;;;;;;;;;;;4856907;29;19962;-53
2024/03/17 10:42:25;;;;;;;;;;;;;;;;;;4860219;29;19913;-52
2024/03/17 10:44:51;;;;;;;;;;;;;;;;;;4858287;29;19916;-55
2024/03/17 10:47:17;;;;;;;;;;;;;;;;;;4865015;29;20019;-52
2024/03/17 10:49:43;;;;;;;;;;;;;;;;;;4875904;29;19912;-53
2024/03/17 10:52:09;;;;;;;;;;;;;;;;;;4862428;29;20647;-51
2024/03/17 10:54:35;;;;;;;;;;;;;;;;;;4870048;29;20409;-52
2024/03/17 10:57:01;;;;;;;;;;;;;;;;;;4870939;29;19954;-55
2024/03/17 10:59:27;;;;;;;;;;;;;;;;;;4865291;29;20262;-56
2024/03/17 11:01:54;;;;;;;;;;;;;;;;;;4870324;29;20006;-56
2024/03/17 11:04:21;;;;;;;;;;;;;;;;;;4871404;29;19946;-56
2024/03/17 11:06:48;;;;;;;;;;;;;;;;;;4873048;29;19920;-55
2024/03/17 11:09:13;;;;;;;;;;;;;;;;;;4867783;29;20368;-56
2024/03/17 11:11:42;;;;;;;;;;;;;;;;;;4870009;29;20008;-56
2024/03/17 11:14:08;;;;;;;;;;;;;;;;;;4862754;29;19918;-55
2024/03/17 11:16:34;;;;;;;;;;;;;;;;;;4859731;29;19912;-55
2024/03/17 11:19:00;;;;;;;;;;;;;;;;;;4860624;29;19966;-56
2024/03/17 11:21:28;;;;;;;;;;;;;;;;;;4863117;29;19912;-57
2024/03/17 11:23:54;;;;;;;;;;;;;;;;;;4871425;29;19993;-56
2024/03/17 11:26:20;;;;;;;;;;;;;;;;;;4859076;29;20384;-59
2024/03/17 11:28:46;;;;;;;;;;;;;;;;;;4858501;29;20375;-60
2024/03/17 11:31:12;;;;;;;;;;;;;;;;;;4860426;29;19915;-60
2024/03/17 11:33:39;;;;;;;;;;;;;;;;;;4858779;29;20554;-59
2024/03/17 11:36:04;;;;;;;;;;;;;;;;;;4857316;29;19916;-58
2024/03/17 11:38:30;;;;;;;;;;;;;;;;;;4857093;29;19920;-58
2024/03/17 11:40:56;;;;;;;;;;;;;;;;;;4857455;29;20080;-58
2024/03/17 11:43:23;;;;;;;;;;;;;;;;;;4856944;29;20004;-54
2024/03/17 11:45:49;;;;;;;;;;;;;;;;;;4858634;29;19971;-60
2024/03/17 11:48:15;;;;;;;;;;;;;;;;;;4856741;29;19912;-55
2024/03/17 11:50:41;;;;;;;;;;;;;;;;;;4858268;29;19991;-57
2024/03/17 11:53:07;;;;;;;;;;;;;;;;;;4855951;29;20352;-56
2024/03/17 11:55:34;;;;;;;;;;;;;;;;;;4857186;29;20274;-59
2024/03/17 11:58:00;;;;;;;;;;;;;;;;;;4857819;29;19940;-58
2024/03/17 12:00:26;;;;;;;;;;;;;;;;;;4855944;29;19954;-59
2024/03/17 12:02:52;;;;;;;;;;;;;;;;;;4854459;29;19991;-59
2024/03/17 12:05:20;;;;;;;;;;;;;;;;;;4859036;29;19935;-57
2024/03/17 12:07:46;;;;;;;;;;;;;;;;;;4856664;29;19923;-53
2024/03/17 12:10:16;;;;;;;;;;;;;;;;;;4857427;29;19958;-52
2024/03/17 12:12:42;;;;;;;;;;;;;;;;;;4855660;29;19941;-52
2024/03/17 12:15:08;;;;;;;;;;;;;;;;;;4858957;29;19916;-52
2024/03/17 12:17:34;;;;;;;;;;;;;;;;;;4856211;29;20012;-53
2024/03/17 12:20:00;;;;;;;;;;;;;;;;;;4854460;29;19984;-52
2024/03/17 12:22:30;;;;;;;;;;;;;;;;;;4857595;29;19912;-53
2024/03/17 12:24:58;;;;;;;;;;;;;;;;;;4856680;29;19912;-52
2024/03/17 12:27:24;;;;;;;;;;;;;;;;;;4862064;29;19974;-53
2024/03/17 12:29:50;;;;;;;;;;;;;;;;;;4857425;29;20322;-51
2024/03/17 12:32:16;;;;;;;;;;;;;;;;;;4857763;29;19960;-54
2024/03/17 12:34:42;;;;;;;;;;;;;;;;;;4857855;29;19912;-52
2024/03/17 12:37:08;;;;;;;;;;;;;;;;;;4854778;29;19919;-52
2024/03/17 12:39:34;;;;;;;;;;;;;;;;;;4855180;29;19916;-52
2024/03/17 12:42:00;;;;;;;;;;;;;;;;;;4854792;29;20442;-53
2024/03/17 12:44:25;;;;;;;;;;;;;;;;;;4856720;29;19912;-53
2024/03/17 12:46:51;;;;;;;;;;;;;;;;;;4843748;29;19970;-53
2024/03/17 12:49:17;;;;;;;;;;;;;;;;;;4840112;29;20126;-54
2024/03/17 12:51:43;;;;;;;;;;;;;;;;;;4838838;29;20002;-53
2024/03/17 12:54:09;;;;;;;;;;;;;;;;;;4849134;29;19955;-52
2024/03/17 13:02:05;;;;;;;;;;;;;;;;;;4855892;29;19931;-50
2024/03/17 13:04:30;;;;;;;;;;;;;;;;;;4853238;29;19966;-52
2024/03/17 13:06:56;;;;;;;;;;;;;;;;;;4853683;29;19965;-52
2024/03/17 13:09:23;;;;;;;;;;;;;;;;;;4854854;29;19959;-51
2024/03/17 13:11:49;;;;;;;;;;;;;;;;;;4853549;29;19984;-51
2024/03/17 13:14:17;;;;;;;;;;;;;;;;;;4855935;29;20411;-52
2024/03/17 13:16:43;;;;;;;;;;;;;;;;;;4857624;29;19912;-55
2024/03/17 13:19:09;;;;;;;;;;;;;;;;;;4852505;29;20003;-55
2024/03/17 13:21:35;;;;;;;;;;;;;;;;;;4855452;29;19947;-52
2024/03/17 13:24:01;;;;;;;;;;;;;;;;;;4853891;29;19974;-52
2024/03/17 13:26:27;;;;;;;;;;;;;;;;;;4852348;29;20398;-52
2024/03/17 13:28:53;;;;;;;;;;;;;;;;;;4847783;29;20727;-53
2024/03/17 13:31:19;;;;;;;;;;;;;;;;;;4845847;29;20399;-52
2024/03/17 13:33:45;;;;;;;;;;;;;;;;;;4852792;29;20381;-53
2024/03/17 13:36:11;;;;;;;;;;;;;;;;;;4849886;29;19962;-52
2024/03/17 13:38:37;;;;;;;;;;;;;;;;;;4866513;29;19967;-51
2024/03/17 13:41:04;;;;;;;;;;;;;;;;;;4869101;29;20384;-53
2024/03/17 13:43:30;;;;;;;;;;;;;;;;;;4859316;29;19959;-53
2024/03/17 13:45:56;;;;;;;;;;;;;;;;;;4858677;29;19989;-53
2024/03/17 13:48:22;;;;;;;;;;;;;;;;;;4860357;29;19953;-52
2024/03/17 13:50:49;;;;;;;;;;;;;;;;;;4859351;29;19919;-52
2024/03/17 13:53:15;;;;;;;;;;;;;;;;;;4860996;29;19911;-53
2024/03/17 13:55:41;;;;;;;;;;;;;;;;;;4849288;29;19916;-53
2024/03/17 13:58:07;;;;;;;;;;;;;;;;;;4856043;29;19919;-53
2024/03/17 14:00:39;;;;;;;;;;;;;;;;;;4857397;29;19951;-52
2024/03/17 14:03:05;;;;;;;;;;;;;;;;;;4860521;29;20364;-53
2024/03/17 14:05:34;;;;;;;;;;;;;;;;;;4863929;29;20390;-53
2024/03/17 14:08:00;;;;;;;;;;;;;;;;;;4857467;29;19912;-55
2024/03/17 14:10:26;;;;;;;;;;;;;;;;;;4858080;29;20499;-53
2024/03/17 14:12:56;;;;;;;;;;;;;;;;;;4860623;29;19953;-53
2024/03/17 14:15:22;;;;;;;;;;;;;;;;;;4857219;29;20524;-53
2024/03/17 14:17:50;;;;;;;;;;;;;;;;;;4858376;29;19963;-54
2024/03/17 14:20:18;;;;;;;;;;;;;;;;;;4858907;29;19927;-56
2024/03/17 14:22:44;;;;;;;;;;;;;;;;;;4858332;29;19920;-53
2024/03/17 14:25:11;;;;;;;;;;;;;;;;;;4862697;29;19920;-54
2024/03/17 14:27:37;;;;;;;;;;;;;;;;;;4875285;29;20297;-57
2024/03/17 14:30:04;;;;;;;;;;;;;;;;;;4876745;29;19962;-56
2024/03/17 14:32:29;;;;;;;;;;;;;;;;;;4878724;29;20403;-57
2024/03/17 14:34:55;;;;;;;;;;;;;;;;;;4887816;29;19987;-57
2024/03/17 14:37:22;;;;;;;;;;;;;;;;;;4877359;29;20400;-57
2024/03/17 14:39:48;;;;;;;;;;;;;;;;;;4877875;29;19916;-57
2024/03/17 14:42:14;;;;;;;;;;;;;;;;;;4878154;29;19950;-57
2024/03/17 14:44:40;;;;;;;;;;;;;;;;;;4874873;29;20328;-57
2024/03/17 14:47:06;;;;;;;;;;;;;;;;;;4877067;29;19912;-57
2024/03/17 14:49:32;;;;;;;;;;;;;;;;;;4884300;29;19916;-57
2024/03/17 14:51:59;;;;;;;;;;;;;;;;;;4881873;29;19950;-56
2024/03/17 14:54:25;;;;;;;;;;;;;;;;;;4882013;29;19919;-57
2024/03/17 14:56:51;;;;;;;;;;;;;;;;;;4880754;29;19911;-57
2024/03/17 14:59:18;;;;;;;;;;;;;;;;;;4879244;29;20284;-56
2024/03/17 15:01:44;;;;;;;;;;;;;;;;;;4877418;29;20458;-57
2024/03/17 15:04:10;;;;;;;;;;;;;;;;;;4875067;29;19994;-57
2024/03/17 15:06:36;;;;;;;;;;;;;;;;;;4877798;29;19943;-57
2024/03/17 15:09:03;;;;;;;;;;;;;;;;;;4877403;29;19957;-57
2024/03/17 15:11:29;;;;;;;;;;;;;;;;;;4878752;29;20364;-57
2024/03/17 15:13:55;;;;;;;;;;;;;;;;;;4881375;29;19958;-57
2024/03/17 15:16:22;;;;;;;;;;;;;;;;;;4878509;29;20002;-57
2024/03/17 15:18:48;;;;;;;;;;;;;;;;;;4879679;29;19923;-57
2024/03/17 15:21:14;;;;;;;;;;;;;;;;;;4876964;29;19979;-57
2024/03/17 15:23:41;;;;;;;;;;;;;;;;;;4876687;29;19994;-56
2024/03/17 15:26:11;;;;;;;;;;;;;;;;;;4874635;29;20396;-57
2024/03/17 15:28:37;;;;;;;;;;;;;;;;;;4857889;29;19924;-52
2024/03/17 15:31:03;;;;;;;;;;;;;;;;;;4858049;29;19954;-54
2024/03/17 15:33:29;;;;;;;;;;;;;;;;;;4854865;29;19955;-53
2024/03/17 15:35:55;;;;;;;;;;;;;;;;;;4858094;29;19912;-57
2024/03/17 15:38:22;;;;;;;;;;;;;;;;;;4857111;29;19916;-57
2024/03/17 15:40:47;;;;;;;;;;;;;;;;;;4857741;29;20030;-57
2024/03/17 15:43:13;;;;;;;;;;;;;;;;;;4857993;29;19916;-57
2024/03/17 15:45:41;;;;;;;;;;;;;;;;;;4858727;29;19958;-53
2024/03/17 15:48:07;;;;;;;;;;;;;;;;;;4857556;29;19923;-54
2024/03/17 15:50:35;;;;;;;;;;;;;;;;;;4858241;29;20094;-53
2024/03/17 15:53:01;;;;;;;;;;;;;;;;;;4856627;29;19919;-52
2024/03/17 15:55:27;;;;;;;;;;;;;;;;;;4853644;29;19923;-51
2024/03/17 15:57:54;;;;;;;;;;;;;;;;;;4856431;29;19944;-52
2024/03/17 16:00:20;;;;;;;;;;;;;;;;;;4856394;29;20391;-53
2024/03/17 16:02:47;;;;;;;;;;;;;;;;;;4857452;29;20018;-53
2024/03/17 16:05:13;;;;;;;;;;;;;;;;;;4857554;29;19912;-52
2024/03/17 16:07:39;;;;;;;;;;;;;;;;;;4857891;29;20391;-52
2024/03/17 16:10:06;;;;;;;;;;;;;;;;;;4851760;29;19961;-51
2024/03/17 16:12:33;;;;;;;;;;;;;;;;;;4856128;29;19916;-53
2024/03/17 16:15:00;;;;;;;;;;;;;;;;;;4857942;29;19977;-52
2024/03/17 16:17:27;;;;;;;;;;;;;;;;;;4857779;29;20300;-52
2024/03/17 16:19:54;;;;;;;;;;;;;;;;;;4857485;29;19923;-52
2024/03/17 16:22:20;;;;;;;;;;;;;;;;;;4856523;29;19974;-53
2024/03/17 16:24:48;;;;;;;;;;;;;;;;;;4857494;29;20357;-52
2024/03/17 16:27:13;;;;;;;;;;;;;;;;;;4863310;29;20003;-53
2024/03/17 16:29:42;;;;;;;;;;;;;;;;;;4882216;29;19950;-53
2024/03/17 16:32:08;;;;;;;;;;;;;;;;;;4874824;29;19915;-52
2024/03/17 16:34:34;;;;;;;;;;;;;;;;;;4872650;29;19938;-53
2024/03/17 16:37:00;;;;;;;;;;;;;;;;;;4877175;29;19958;-52
2024/03/17 16:39:26;;;;;;;;;;;;;;;;;;4874919;29;19967;-52
2024/03/17 16:41:51;;;;;;;;;;;;;;;;;;4874895;29;19926;-53
2024/03/17 16:44:17;;;;;;;;;;;;;;;;;;4872683;29;19923;-52
2024/03/17 16:46:44;;;;;;;;;;;;;;;;;;4875168;29;19915;-51